GMFO/OUD METAR and TAF weather

Enter ICAO airport designator
Station Type Date Time Source
GMFO METAR 2019/11/13 02:00 UTC NOAA

GMFO 130200Z 21008KT 9999 FEW033 13/08 Q1015 NOSIG


Station Type Date Time Source
GMFO Decoded METAR 2019/11/13 02:00 UTC NOAA

Oujda, Morocco (GMFO) 34-47N 001-56W 470M
Nov 12, 2019 - 09:00 PM EST / 2019.11.13 0200 UTC
Wind: from the SSW (210 degrees) at 9 MPH (8 KT):0
Visibility: greater than 7 mile(s):0
Sky conditions: mostly clear
Temperature: 55 F (13 C)
Dew Point: 46 F (8 C)
Relative Humidity: 71%
Pressure (altimeter): 29.97 in. Hg (1015 hPa)
ob: GMFO 130200Z 21008KT 9999 FEW033 13/08 Q1015 NOSIG
cycle: 2

Station Type Date Time Source
GMFO TAF 2019/11/12 18:27 UTC NOAA

TAF GMFO 121700Z 1218/1324 32014KT 9999 SCT026 SCT040

Example: see airport list